sensor_id;sensor_type;location;lat;lon;timestamp;P1;durP1;ratioP1;P2;durP2;ratioP2
6388;SDS011;3227;42.654;23.360;2023-06-04T00:02:14;7.88;;;4.60;;
6388;SDS011;3227;42.654;23.360;2023-06-04T00:04:41;7.50;;;4.40;;
6388;SDS011;3227;42.654;23.360;2023-06-04T00:07:07;7.03;;;4.20;;
6388;SDS011;3227;42.654;23.360;2023-06-04T00:09:34;6.70;;;3.70;;
6388;SDS011;3227;42.654;23.360;2023-06-04T00:12:02;8.87;;;4.80;;
6388;SDS011;3227;42.654;23.360;2023-06-04T00:14:30;6.90;;;4.00;;
6388;SDS011;3227;42.654;23.360;2023-06-04T00:16:56;6.03;;;3.70;;
6388;SDS011;3227;42.654;23.360;2023-06-04T00:19:23;8.75;;;3.65;;
6388;SDS011;3227;42.654;23.360;2023-06-04T00:21:50;8.80;;;3.80;;
6388;SDS011;3227;42.654;23.360;2023-06-04T00:24:17;7.97;;;3.78;;
6388;SDS011;3227;42.654;23.360;2023-06-04T00:26:44;7.87;;;3.87;;
6388;SDS011;3227;42.654;23.360;2023-06-04T00:29:12;6.22;;;3.60;;
6388;SDS011;3227;42.654;23.360;2023-06-04T00:31:39;7.10;;;3.70;;
6388;SDS011;3227;42.654;23.360;2023-06-04T00:34:05;6.03;;;3.53;;
6388;SDS011;3227;42.654;23.360;2023-06-04T00:36:32;7.82;;;3.90;;
6388;SDS011;3227;42.654;23.360;2023-06-04T00:38:59;6.93;;;3.97;;
6388;SDS011;3227;42.654;23.360;2023-06-04T00:41:25;10.98;;;3.72;;
6388;SDS011;3227;42.654;23.360;2023-06-04T00:43:52;7.85;;;3.80;;
6388;SDS011;3227;42.654;23.360;2023-06-04T00:46:23;7.07;;;4.40;;
6388;SDS011;3227;42.654;23.360;2023-06-04T00:48:52;8.40;;;4.47;;
6388;SDS011;3227;42.654;23.360;2023-06-04T00:51:19;7.82;;;4.60;;
6388;SDS011;3227;42.654;23.360;2023-06-04T00:53:46;11.75;;;4.80;;
6388;SDS011;3227;42.654;23.360;2023-06-04T00:56:13;9.60;;;4.50;;
6388;SDS011;3227;42.654;23.360;2023-06-04T00:58:40;9.50;;;4.70;;
6388;SDS011;3227;42.654;23.360;2023-06-04T01:01:10;8.55;;;5.47;;
6388;SDS011;3227;42.654;23.360;2023-06-04T01:03:45;11.60;;;5.93;;
6388;SDS011;3227;42.654;23.360;2023-06-04T01:06:18;9.80;;;5.40;;
6388;SDS011;3227;42.654;23.360;2023-06-04T01:08:49;10.47;;;5.97;;
6388;SDS011;3227;42.654;23.360;2023-06-04T01:11:20;9.00;;;6.10;;
6388;SDS011;3227;42.654;23.360;2023-06-04T01:13:57;10.70;;;7.15;;
6388;SDS011;3227;42.654;23.360;2023-06-04T01:16:24;15.20;;;8.10;;
6388;SDS011;3227;42.654;23.360;2023-06-04T01:18:55;10.93;;;7.70;;
6388;SDS011;3227;42.654;23.360;2023-06-04T01:21:26;12.80;;;7.97;;
6388;SDS011;3227;42.654;23.360;2023-06-04T01:23:56;11.80;;;8.37;;
6388;SDS011;3227;42.654;23.360;2023-06-04T01:26:28;15.17;;;8.23;;
6388;SDS011;3227;42.654;23.360;2023-06-04T01:28:56;11.93;;;8.90;;
6388;SDS011;3227;42.654;23.360;2023-06-04T01:31:24;12.53;;;8.00;;
6388;SDS011;3227;42.654;23.360;2023-06-04T01:33:51;10.97;;;7.80;;
6388;SDS011;3227;42.654;23.360;2023-06-04T01:36:20;10.57;;;6.97;;
6388;SDS011;3227;42.654;23.360;2023-06-04T01:38:48;9.10;;;6.03;;
6388;SDS011;3227;42.654;23.360;2023-06-04T01:41:15;9.27;;;5.60;;
6388;SDS011;3227;42.654;23.360;2023-06-04T01:43:42;8.33;;;5.20;;
6388;SDS011;3227;42.654;23.360;2023-06-04T01:46:09;7.33;;;4.73;;
6388;SDS011;3227;42.654;23.360;2023-06-04T01:48:35;8.57;;;4.50;;
6388;SDS011;3227;42.654;23.360;2023-06-04T01:51:04;9.33;;;4.30;;
6388;SDS011;3227;42.654;23.360;2023-06-04T01:53:32;6.60;;;3.87;;
6388;SDS011;3227;42.654;23.360;2023-06-04T01:56:00;7.63;;;3.70;;
6388;SDS011;3227;42.654;23.360;2023-06-04T01:58:27;5.90;;;3.53;;
6388;SDS011;3227;42.654;23.360;2023-06-04T02:00:54;6.90;;;3.70;;
6388;SDS011;3227;42.654;23.360;2023-06-04T02:03:21;6.60;;;3.70;;
6388;SDS011;3227;42.654;23.360;2023-06-04T02:05:48;7.47;;;3.40;;
6388;SDS011;3227;42.654;23.360;2023-06-04T02:08:15;6.00;;;3.10;;
6388;SDS011;3227;42.654;23.360;2023-06-04T02:10:46;8.30;;;4.00;;
6388;SDS011;3227;42.654;23.360;2023-06-04T02:13:13;8.23;;;4.90;;
6388;SDS011;3227;42.654;23.360;2023-06-04T02:15:40;9.20;;;6.03;;
6388;SDS011;3227;42.654;23.360;2023-06-04T02:18:14;10.63;;;6.20;;
6388;SDS011;3227;42.654;23.360;2023-06-04T02:20:42;11.17;;;6.20;;
6388;SDS011;3227;42.654;23.360;2023-06-04T02:23:10;9.47;;;5.97;;
6388;SDS011;3227;42.654;23.360;2023-06-04T02:25:37;8.83;;;6.20;;
6388;SDS011;3227;42.654;23.360;2023-06-04T02:28:06;12.17;;;7.20;;
6388;SDS011;3227;42.654;23.360;2023-06-04T02:30:33;9.53;;;6.97;;
6388;SDS011;3227;42.654;23.360;2023-06-04T02:32:59;11.23;;;6.57;;
6388;SDS011;3227;42.654;23.360;2023-06-04T02:35:27;8.43;;;5.47;;
6388;SDS011;3227;42.654;23.360;2023-06-04T02:37:53;10.30;;;5.70;;
6388;SDS011;3227;42.654;23.360;2023-06-04T02:40:21;7.57;;;5.40;;
6388;SDS011;3227;42.654;23.360;2023-06-04T02:42:48;7.10;;;4.80;;
6388;SDS011;3227;42.654;23.360;2023-06-04T02:45:16;7.37;;;5.00;;
6388;SDS011;3227;42.654;23.360;2023-06-04T02:47:44;8.80;;;5.00;;
6388;SDS011;3227;42.654;23.360;2023-06-04T02:50:11;8.37;;;4.33;;
6388;SDS011;3227;42.654;23.360;2023-06-04T02:52:39;6.70;;;4.57;;
6388;SDS011;3227;42.654;23.360;2023-06-04T02:57:53;7.50;;;3.80;;
6388;SDS011;3227;42.654;23.360;2023-06-04T03:00:21;7.13;;;3.73;;
6388;SDS011;3227;42.654;23.360;2023-06-04T03:02:47;7.83;;;3.80;;
6388;SDS011;3227;42.654;23.360;2023-06-04T03:05:15;5.87;;;3.50;;
6388;SDS011;3227;42.654;23.360;2023-06-04T03:07:43;7.27;;;3.80;;
6388;SDS011;3227;42.654;23.360;2023-06-04T03:10:12;6.00;;;3.50;;
6388;SDS011;3227;42.654;23.360;2023-06-04T03:12:40;5.57;;;3.60;;
6388;SDS011;3227;42.654;23.360;2023-06-04T03:15:07;5.37;;;3.23;;
6388;SDS011;3227;42.654;23.360;2023-06-04T03:17:36;6.72;;;3.92;;
6388;SDS011;3227;42.654;23.360;2023-06-04T03:20:03;9.40;;;3.70;;
6388;SDS011;3227;42.654;23.360;2023-06-04T03:22:32;7.07;;;3.33;;
6388;SDS011;3227;42.654;23.360;2023-06-04T03:25:00;5.97;;;3.40;;
6388;SDS011;3227;42.654;23.360;2023-06-04T03:27:27;6.40;;;3.47;;
6388;SDS011;3227;42.654;23.360;2023-06-04T03:29:54;8.60;;;3.80;;
6388;SDS011;3227;42.654;23.360;2023-06-04T03:32:21;6.07;;;3.97;;
6388;SDS011;3227;42.654;23.360;2023-06-04T03:34:49;7.97;;;3.90;;
6388;SDS011;3227;42.654;23.360;2023-06-04T03:37:16;8.45;;;3.85;;
6388;SDS011;3227;42.654;23.360;2023-06-04T03:39:43;6.97;;;3.47;;
6388;SDS011;3227;42.654;23.360;2023-06-04T03:42:10;8.63;;;3.53;;
6388;SDS011;3227;42.654;23.360;2023-06-04T03:44:36;6.40;;;3.43;;
6388;SDS011;3227;42.654;23.360;2023-06-04T03:47:03;15.27;;;3.80;;
6388;SDS011;3227;42.654;23.360;2023-06-04T03:49:30;6.30;;;3.80;;
6388;SDS011;3227;42.654;23.360;2023-06-04T03:51:58;8.60;;;4.10;;
6388;SDS011;3227;42.654;23.360;2023-06-04T03:54:25;6.27;;;3.70;;
6388;SDS011;3227;42.654;23.360;2023-06-04T03:56:52;10.43;;;4.00;;
6388;SDS011;3227;42.654;23.360;2023-06-04T03:59:19;7.17;;;3.80;;
6388;SDS011;3227;42.654;23.360;2023-06-04T04:01:46;7.30;;;3.77;;
6388;SDS011;3227;42.654;23.360;2023-06-04T04:04:12;6.50;;;3.90;;
6388;SDS011;3227;42.654;23.360;2023-06-04T04:06:39;8.00;;;4.43;;
6388;SDS011;3227;42.654;23.360;2023-06-04T04:09:07;6.47;;;4.20;;
6388;SDS011;3227;42.654;23.360;2023-06-04T04:11:34;8.77;;;4.27;;
6388;SDS011;3227;42.654;23.360;2023-06-04T04:14:01;8.50;;;4.50;;
6388;SDS011;3227;42.654;23.360;2023-06-04T04:16:28;8.10;;;4.23;;
6388;SDS011;3227;42.654;23.360;2023-06-04T04:18:55;7.27;;;4.00;;
6388;SDS011;3227;42.654;23.360;2023-06-04T04:21:21;6.53;;;4.27;;
6388;SDS011;3227;42.654;23.360;2023-06-04T04:23:49;7.40;;;4.47;;
6388;SDS011;3227;42.654;23.360;2023-06-04T04:26:18;7.13;;;3.83;;
6388;SDS011;3227;42.654;23.360;2023-06-04T04:28:45;6.23;;;3.80;;
6388;SDS011;3227;42.654;23.360;2023-06-04T04:31:12;8.30;;;4.00;;
6388;SDS011;3227;42.654;23.360;2023-06-04T04:33:39;6.30;;;4.00;;
6388;SDS011;3227;42.654;23.360;2023-06-04T04:36:06;9.77;;;4.70;;
6388;SDS011;3227;42.654;23.360;2023-06-04T04:38:37;8.87;;;3.97;;
6388;SDS011;3227;42.654;23.360;2023-06-04T04:41:05;7.57;;;4.23;;
6388;SDS011;3227;42.654;23.360;2023-06-04T04:43:35;6.73;;;4.57;;
6388;SDS011;3227;42.654;23.360;2023-06-04T04:46:02;8.73;;;4.70;;
6388;SDS011;3227;42.654;23.360;2023-06-04T04:48:29;7.53;;;4.20;;
6388;SDS011;3227;42.654;23.360;2023-06-04T04:50:56;9.00;;;4.77;;
6388;SDS011;3227;42.654;23.360;2023-06-04T04:53:23;10.00;;;4.47;;
6388;SDS011;3227;42.654;23.360;2023-06-04T04:55:50;8.50;;;4.60;;
6388;SDS011;3227;42.654;23.360;2023-06-04T04:58:17;8.87;;;5.07;;
6388;SDS011;3227;42.654;23.360;2023-06-04T05:00:45;13.10;;;4.90;;
6388;SDS011;3227;42.654;23.360;2023-06-04T05:03:12;9.87;;;4.83;;
6388;SDS011;3227;42.654;23.360;2023-06-04T05:05:39;10.10;;;4.90;;
6388;SDS011;3227;42.654;23.360;2023-06-04T05:08:06;8.67;;;4.47;;
6388;SDS011;3227;42.654;23.360;2023-06-04T05:10:33;8.03;;;4.80;;
6388;SDS011;3227;42.654;23.360;2023-06-04T05:13:01;8.63;;;4.55;;
6388;SDS011;3227;42.654;23.360;2023-06-04T05:15:39;11.60;;;5.00;;
6388;SDS011;3227;42.654;23.360;2023-06-04T05:18:08;8.97;;;5.00;;
6388;SDS011;3227;42.654;23.360;2023-06-04T05:20:35;8.87;;;4.90;;
6388;SDS011;3227;42.654;23.360;2023-06-04T05:23:03;8.85;;;4.88;;
6388;SDS011;3227;42.654;23.360;2023-06-04T05:25:30;10.73;;;5.30;;
6388;SDS011;3227;42.654;23.360;2023-06-04T05:27:56;10.53;;;5.97;;
6388;SDS011;3227;42.654;23.360;2023-06-04T05:30:23;8.57;;;5.43;;
6388;SDS011;3227;42.654;23.360;2023-06-04T05:32:51;14.37;;;5.50;;
6388;SDS011;3227;42.654;23.360;2023-06-04T05:35:20;9.83;;;5.57;;
6388;SDS011;3227;42.654;23.360;2023-06-04T05:37:46;12.87;;;5.53;;
6388;SDS011;3227;42.654;23.360;2023-06-04T05:40:18;8.10;;;5.63;;
6388;SDS011;3227;42.654;23.360;2023-06-04T05:42:46;8.87;;;5.43;;
6388;SDS011;3227;42.654;23.360;2023-06-04T05:45:13;12.70;;;5.80;;
6388;SDS011;3227;42.654;23.360;2023-06-04T05:47:40;12.13;;;5.70;;
6388;SDS011;3227;42.654;23.360;2023-06-04T05:50:07;10.43;;;5.73;;
6388;SDS011;3227;42.654;23.360;2023-06-04T05:52:35;13.40;;;5.77;;
6388;SDS011;3227;42.654;23.360;2023-06-04T05:55:03;9.70;;;5.53;;
6388;SDS011;3227;42.654;23.360;2023-06-04T05:57:32;15.30;;;6.10;;
6388;SDS011;3227;42.654;23.360;2023-06-04T05:59:59;11.30;;;6.30;;
6388;SDS011;3227;42.654;23.360;2023-06-04T06:02:26;11.48;;;5.82;;
6388;SDS011;3227;42.654;23.360;2023-06-04T06:04:58;11.88;;;6.13;;
6388;SDS011;3227;42.654;23.360;2023-06-04T06:07:24;11.05;;;6.65;;
6388;SDS011;3227;42.654;23.360;2023-06-04T06:09:52;16.60;;;6.95;;
6388;SDS011;3227;42.654;23.360;2023-06-04T06:12:19;11.18;;;6.13;;
6388;SDS011;3227;42.654;23.360;2023-06-04T06:14:46;9.07;;;5.63;;
6388;SDS011;3227;42.654;23.360;2023-06-04T06:17:13;9.55;;;5.65;;
6388;SDS011;3227;42.654;23.360;2023-06-04T06:19:40;12.38;;;5.82;;
6388;SDS011;3227;42.654;23.360;2023-06-04T06:22:07;10.27;;;6.18;;
6388;SDS011;3227;42.654;23.360;2023-06-04T06:24:34;7.78;;;5.28;;
6388;SDS011;3227;42.654;23.360;2023-06-04T06:27:02;10.77;;;6.07;;
6388;SDS011;3227;42.654;23.360;2023-06-04T06:29:30;8.77;;;5.50;;
6388;SDS011;3227;42.654;23.360;2023-06-04T06:31:56;9.25;;;5.60;;
6388;SDS011;3227;42.654;23.360;2023-06-04T06:34:24;7.88;;;5.40;;
6388;SDS011;3227;42.654;23.360;2023-06-04T06:36:51;10.20;;;5.77;;
6388;SDS011;3227;42.654;23.360;2023-06-04T06:39:18;10.00;;;6.03;;
6388;SDS011;3227;42.654;23.360;2023-06-04T06:41:45;9.40;;;5.20;;
6388;SDS011;3227;42.654;23.360;2023-06-04T06:44:14;9.17;;;5.63;;
6388;SDS011;3227;42.654;23.360;2023-06-04T06:46:40;10.00;;;5.80;;
6388;SDS011;3227;42.654;23.360;2023-06-04T06:49:07;9.77;;;5.73;;
6388;SDS011;3227;42.654;23.360;2023-06-04T06:51:34;9.90;;;4.90;;
6388;SDS011;3227;42.654;23.360;2023-06-04T06:54:01;8.00;;;5.53;;
6388;SDS011;3227;42.654;23.360;2023-06-04T06:56:28;11.60;;;5.50;;
6388;SDS011;3227;42.654;23.360;2023-06-04T06:58:55;14.82;;;5.97;;
6388;SDS011;3227;42.654;23.360;2023-06-04T07:01:23;9.18;;;5.93;;
6388;SDS011;3227;42.654;23.360;2023-06-04T07:03:50;10.48;;;5.35;;
6388;SDS011;3227;42.654;23.360;2023-06-04T07:06:17;9.20;;;5.55;;
6388;SDS011;3227;42.654;23.360;2023-06-04T07:08:44;10.90;;;5.30;;
6388;SDS011;3227;42.654;23.360;2023-06-04T07:11:13;10.18;;;5.25;;
6388;SDS011;3227;42.654;23.360;2023-06-04T07:13:41;10.60;;;5.63;;
6388;SDS011;3227;42.654;23.360;2023-06-04T07:16:08;9.13;;;5.63;;
6388;SDS011;3227;42.654;23.360;2023-06-04T07:18:36;9.23;;;5.47;;
6388;SDS011;3227;42.654;23.360;2023-06-04T07:21:03;10.02;;;5.57;;
6388;SDS011;3227;42.654;23.360;2023-06-04T07:23:30;10.55;;;6.00;;
6388;SDS011;3227;42.654;23.360;2023-06-04T07:25:57;12.07;;;5.72;;
6388;SDS011;3227;42.654;23.360;2023-06-04T07:28:24;14.07;;;6.13;;
6388;SDS011;3227;42.654;23.360;2023-06-04T07:30:50;10.40;;;6.35;;
6388;SDS011;3227;42.654;23.360;2023-06-04T07:33:17;12.07;;;6.00;;
6388;SDS011;3227;42.654;23.360;2023-06-04T07:35:51;8.35;;;5.85;;
6388;SDS011;3227;42.654;23.360;2023-06-04T07:38:18;9.63;;;6.45;;
6388;SDS011;3227;42.654;23.360;2023-06-04T07:40:45;13.05;;;6.30;;
6388;SDS011;3227;42.654;23.360;2023-06-04T07:43:12;11.35;;;6.20;;
6388;SDS011;3227;42.654;23.360;2023-06-04T07:45:39;12.25;;;6.30;;
6388;SDS011;3227;42.654;23.360;2023-06-04T07:48:06;11.15;;;6.45;;
6388;SDS011;3227;42.654;23.360;2023-06-04T07:50:35;11.93;;;6.15;;
6388;SDS011;3227;42.654;23.360;2023-06-04T07:53:03;10.43;;;6.35;;
6388;SDS011;3227;42.654;23.360;2023-06-04T07:55:30;12.00;;;6.45;;
6388;SDS011;3227;42.654;23.360;2023-06-04T07:57:56;12.98;;;6.05;;
6388;SDS011;3227;42.654;23.360;2023-06-04T08:00:23;16.02;;;6.10;;
6388;SDS011;3227;42.654;23.360;2023-06-04T08:02:50;13.38;;;5.78;;
6388;SDS011;3227;42.654;23.360;2023-06-04T08:05:17;12.07;;;6.25;;
6388;SDS011;3227;42.654;23.360;2023-06-04T08:07:45;10.48;;;5.85;;
6388;SDS011;3227;42.654;23.360;2023-06-04T08:10:14;11.93;;;6.47;;
6388;SDS011;3227;42.654;23.360;2023-06-04T08:12:40;10.48;;;6.45;;
6388;SDS011;3227;42.654;23.360;2023-06-04T08:15:07;12.40;;;7.32;;
6388;SDS011;3227;42.654;23.360;2023-06-04T08:17:35;10.43;;;6.72;;
6388;SDS011;3227;42.654;23.360;2023-06-04T08:20:02;11.55;;;7.13;;
6388;SDS011;3227;42.654;23.360;2023-06-04T08:22:31;11.15;;;7.28;;
6388;SDS011;3227;42.654;23.360;2023-06-04T08:24:58;11.10;;;7.55;;
6388;SDS011;3227;42.654;23.360;2023-06-04T08:27:26;12.55;;;7.25;;
6388;SDS011;3227;42.654;23.360;2023-06-04T08:29:53;14.13;;;8.00;;
6388;SDS011;3227;42.654;23.360;2023-06-04T08:32:20;13.82;;;6.85;;
6388;SDS011;3227;42.654;23.360;2023-06-04T08:34:47;13.77;;;7.50;;
6388;SDS011;3227;42.654;23.360;2023-06-04T08:37:13;16.10;;;7.38;;
6388;SDS011;3227;42.654;23.360;2023-06-04T08:39:40;13.10;;;7.25;;
6388;SDS011;3227;42.654;23.360;2023-06-04T08:42:07;13.65;;;7.50;;
6388;SDS011;3227;42.654;23.360;2023-06-04T08:44:45;11.40;;;7.40;;
6388;SDS011;3227;42.654;23.360;2023-06-04T08:47:16;14.57;;;7.78;;
6388;SDS011;3227;42.654;23.360;2023-06-04T08:49:47;13.13;;;7.45;;
6388;SDS011;3227;42.654;23.360;2023-06-04T08:52:16;14.23;;;8.27;;
6388;SDS011;3227;42.654;23.360;2023-06-04T08:54:47;12.82;;;7.80;;
6388;SDS011;3227;42.654;23.360;2023-06-04T08:57:15;13.18;;;7.20;;
6388;SDS011;3227;42.654;23.360;2023-06-04T08:59:43;13.75;;;7.22;;
6388;SDS011;3227;42.654;23.360;2023-06-04T09:02:13;11.30;;;7.00;;
6388;SDS011;3227;42.654;23.360;2023-06-04T09:04:40;13.90;;;6.93;;
6388;SDS011;3227;42.654;23.360;2023-06-04T09:07:08;15.65;;;7.18;;
6388;SDS011;3227;42.654;23.360;2023-06-04T09:09:38;15.63;;;7.13;;
6388;SDS011;3227;42.654;23.360;2023-06-04T09:12:07;15.10;;;7.05;;
6388;SDS011;3227;42.654;23.360;2023-06-04T09:14:36;12.10;;;6.97;;
6388;SDS011;3227;42.654;23.360;2023-06-04T09:17:04;12.68;;;7.00;;
6388;SDS011;3227;42.654;23.360;2023-06-04T09:19:31;11.07;;;7.28;;
6388;SDS011;3227;42.654;23.360;2023-06-04T09:21:58;11.38;;;7.15;;
6388;SDS011;3227;42.654;23.360;2023-06-04T09:24:38;13.38;;;7.50;;
6388;SDS011;3227;42.654;23.360;2023-06-04T09:27:09;12.45;;;7.72;;
6388;SDS011;3227;42.654;23.360;2023-06-04T09:29:36;13.23;;;7.80;;
6388;SDS011;3227;42.654;23.360;2023-06-04T09:32:05;13.20;;;8.18;;
6388;SDS011;3227;42.654;23.360;2023-06-04T09:34:32;11.38;;;7.78;;
6388;SDS011;3227;42.654;23.360;2023-06-04T09:36:59;12.18;;;8.32;;
6388;SDS011;3227;42.654;23.360;2023-06-04T09:39:26;15.68;;;9.65;;
6388;SDS011;3227;42.654;23.360;2023-06-04T09:41:59;15.90;;;9.63;;
6388;SDS011;3227;42.654;23.360;2023-06-04T09:44:27;21.13;;;8.85;;
6388;SDS011;3227;42.654;23.360;2023-06-04T09:46:55;12.13;;;8.07;;
6388;SDS011;3227;42.654;23.360;2023-06-04T09:49:23;13.27;;;8.00;;
6388;SDS011;3227;42.654;23.360;2023-06-04T09:51:50;13.93;;;8.55;;
6388;SDS011;3227;42.654;23.360;2023-06-04T09:54:17;14.52;;;8.70;;
6388;SDS011;3227;42.654;23.360;2023-06-04T09:56:44;13.52;;;8.45;;
6388;SDS011;3227;42.654;23.360;2023-06-04T09:59:11;15.25;;;8.07;;
6388;SDS011;3227;42.654;23.360;2023-06-04T10:01:40;15.35;;;9.20;;
6388;SDS011;3227;42.654;23.360;2023-06-04T10:04:08;14.27;;;8.68;;
6388;SDS011;3227;42.654;23.360;2023-06-04T10:06:38;11.77;;;7.47;;
6388;SDS011;3227;42.654;23.360;2023-06-04T10:09:06;13.95;;;7.75;;
6388;SDS011;3227;42.654;23.360;2023-06-04T10:11:35;15.82;;;7.80;;
6388;SDS011;3227;42.654;23.360;2023-06-04T10:14:08;11.75;;;8.05;;
6388;SDS011;3227;42.654;23.360;2023-06-04T10:16:42;13.93;;;7.93;;
6388;SDS011;3227;42.654;23.360;2023-06-04T10:19:10;11.05;;;6.63;;
6388;SDS011;3227;42.654;23.360;2023-06-04T10:21:38;11.27;;;6.80;;
6388;SDS011;3227;42.654;23.360;2023-06-04T10:24:05;13.45;;;6.50;;
6388;SDS011;3227;42.654;23.360;2023-06-04T10:26:34;11.73;;;6.45;;
6388;SDS011;3227;42.654;23.360;2023-06-04T10:29:01;10.52;;;6.97;;
6388;SDS011;3227;42.654;23.360;2023-06-04T10:31:28;11.63;;;7.35;;
6388;SDS011;3227;42.654;23.360;2023-06-04T10:33:56;13.80;;;7.60;;
6388;SDS011;3227;42.654;23.360;2023-06-04T10:36:23;12.18;;;7.25;;
6388;SDS011;3227;42.654;23.360;2023-06-04T10:38:52;13.90;;;7.18;;
6388;SDS011;3227;42.654;23.360;2023-06-04T10:41:21;16.08;;;7.70;;
6388;SDS011;3227;42.654;23.360;2023-06-04T10:43:49;14.65;;;7.95;;
6388;SDS011;3227;42.654;23.360;2023-06-04T10:46:17;12.95;;;7.13;;
6388;SDS011;3227;42.654;23.360;2023-06-04T10:48:45;14.05;;;6.97;;
6388;SDS011;3227;42.654;23.360;2023-06-04T10:51:13;13.82;;;7.05;;
6388;SDS011;3227;42.654;23.360;2023-06-04T10:53:41;11.60;;;6.90;;
6388;SDS011;3227;42.654;23.360;2023-06-04T10:56:10;13.30;;;6.95;;
6388;SDS011;3227;42.654;23.360;2023-06-04T10:58:36;11.02;;;6.82;;
6388;SDS011;3227;42.654;23.360;2023-06-04T11:01:03;9.45;;;6.75;;
6388;SDS011;3227;42.654;23.360;2023-06-04T11:03:36;9.70;;;6.72;;
6388;SDS011;3227;42.654;23.360;2023-06-04T11:06:14;16.48;;;7.47;;
6388;SDS011;3227;42.654;23.360;2023-06-04T11:08:42;10.82;;;7.25;;
6388;SDS011;3227;42.654;23.360;2023-06-04T11:11:13;17.48;;;7.07;;
6388;SDS011;3227;42.654;23.360;2023-06-04T11:13:41;10.23;;;7.00;;
6388;SDS011;3227;42.654;23.360;2023-06-04T11:16:14;10.73;;;7.28;;
6388;SDS011;3227;42.654;23.360;2023-06-04T11:18:42;13.35;;;7.45;;
6388;SDS011;3227;42.654;23.360;2023-06-04T11:21:10;17.30;;;7.57;;
6388;SDS011;3227;42.654;23.360;2023-06-04T11:23:40;12.57;;;8.02;;
6388;SDS011;3227;42.654;23.360;2023-06-04T11:26:07;14.40;;;7.45;;
6388;SDS011;3227;42.654;23.360;2023-06-04T11:28:36;11.05;;;7.72;;
6388;SDS011;3227;42.654;23.360;2023-06-04T11:31:02;13.15;;;7.68;;
6388;SDS011;3227;42.654;23.360;2023-06-04T11:33:40;9.68;;;7.22;;
6388;SDS011;3227;42.654;23.360;2023-06-04T11:36:08;10.57;;;7.47;;
6388;SDS011;3227;42.654;23.360;2023-06-04T11:38:35;11.27;;;7.75;;
6388;SDS011;3227;42.654;23.360;2023-06-04T11:41:02;10.15;;;7.28;;
6388;SDS011;3227;42.654;23.360;2023-06-04T11:43:30;10.95;;;7.32;;
6388;SDS011;3227;42.654;23.360;2023-06-04T11:46:04;12.10;;;7.78;;
6388;SDS011;3227;42.654;23.360;2023-06-04T11:48:32;11.20;;;8.27;;
6388;SDS011;3227;42.654;23.360;2023-06-04T11:50:59;13.18;;;7.88;;
6388;SDS011;3227;42.654;23.360;2023-06-04T11:53:33;11.93;;;8.20;;
6388;SDS011;3227;42.654;23.360;2023-06-04T11:56:00;12.27;;;8.23;;
6388;SDS011;3227;42.654;23.360;2023-06-04T11:58:27;11.15;;;7.82;;
6388;SDS011;3227;42.654;23.360;2023-06-04T12:00:55;11.18;;;7.55;;
6388;SDS011;3227;42.654;23.360;2023-06-04T12:03:33;10.50;;;8.05;;
6388;SDS011;3227;42.654;23.360;2023-06-04T12:08:45;11.98;;;8.57;;
6388;SDS011;3227;42.654;23.360;2023-06-04T12:11:26;13.07;;;9.13;;
6388;SDS011;3227;42.654;23.360;2023-06-04T12:13:54;11.35;;;8.40;;
6388;SDS011;3227;42.654;23.360;2023-06-04T12:16:22;11.13;;;8.25;;
6388;SDS011;3227;42.654;23.360;2023-06-04T12:18:50;19.60;;;9.55;;
6388;SDS011;3227;42.654;23.360;2023-06-04T12:21:17;12.30;;;8.68;;
6388;SDS011;3227;42.654;23.360;2023-06-04T12:23:47;14.68;;;9.02;;
6388;SDS011;3227;42.654;23.360;2023-06-04T12:26:26;11.93;;;8.57;;
6388;SDS011;3227;42.654;23.360;2023-06-04T12:29:00;10.55;;;8.52;;
6388;SDS011;3227;42.654;23.360;2023-06-04T12:31:27;10.65;;;8.07;;
6388;SDS011;3227;42.654;23.360;2023-06-04T12:34:00;13.88;;;8.18;;
6388;SDS011;3227;42.654;23.360;2023-06-04T12:36:27;12.00;;;8.73;;
6388;SDS011;3227;42.654;23.360;2023-06-04T12:38:57;14.55;;;8.88;;
6388;SDS011;3227;42.654;23.360;2023-06-04T12:41:25;18.45;;;7.80;;
6388;SDS011;3227;42.654;23.360;2023-06-04T12:43:52;12.27;;;9.07;;
6388;SDS011;3227;42.654;23.360;2023-06-04T12:46:19;12.45;;;8.20;;
6388;SDS011;3227;42.654;23.360;2023-06-04T12:48:46;12.95;;;8.55;;
6388;SDS011;3227;42.654;23.360;2023-06-04T12:51:15;10.43;;;7.75;;
6388;SDS011;3227;42.654;23.360;2023-06-04T12:53:41;11.23;;;7.68;;
6388;SDS011;3227;42.654;23.360;2023-06-04T12:56:08;11.85;;;7.88;;
6388;SDS011;3227;42.654;23.360;2023-06-04T12:58:36;14.45;;;7.90;;
6388;SDS011;3227;42.654;23.360;2023-06-04T13:01:03;10.60;;;7.88;;
6388;SDS011;3227;42.654;23.360;2023-06-04T13:03:30;14.90;;;8.27;;
6388;SDS011;3227;42.654;23.360;2023-06-04T13:05:57;14.35;;;7.70;;
6388;SDS011;3227;42.654;23.360;2023-06-04T13:08:26;10.65;;;7.20;;
6388;SDS011;3227;42.654;23.360;2023-06-04T13:10:52;10.75;;;7.28;;
6388;SDS011;3227;42.654;23.360;2023-06-04T13:13:20;9.88;;;7.28;;
6388;SDS011;3227;42.654;23.360;2023-06-04T13:15:47;14.02;;;7.10;;
6388;SDS011;3227;42.654;23.360;2023-06-04T13:18:13;12.57;;;7.57;;
6388;SDS011;3227;42.654;23.360;2023-06-04T13:20:40;9.73;;;6.65;;
6388;SDS011;3227;42.654;23.360;2023-06-04T13:23:08;12.93;;;7.15;;
6388;SDS011;3227;42.654;23.360;2023-06-04T13:25:36;13.15;;;7.38;;
6388;SDS011;3227;42.654;23.360;2023-06-04T13:28:02;11.15;;;7.13;;
6388;SDS011;3227;42.654;23.360;2023-06-04T13:30:30;11.23;;;6.80;;
6388;SDS011;3227;42.654;23.360;2023-06-04T13:32:57;11.85;;;7.25;;
6388;SDS011;3227;42.654;23.360;2023-06-04T13:35:24;10.13;;;6.80;;
6388;SDS011;3227;42.654;23.360;2023-06-04T13:37:50;13.32;;;6.55;;
6388;SDS011;3227;42.654;23.360;2023-06-04T13:40:17;10.95;;;7.25;;
6388;SDS011;3227;42.654;23.360;2023-06-04T13:42:46;16.85;;;6.80;;
6388;SDS011;3227;42.654;23.360;2023-06-04T13:45:12;11.43;;;6.72;;
6388;SDS011;3227;42.654;23.360;2023-06-04T13:47:41;11.73;;;6.82;;
6388;SDS011;3227;42.654;23.360;2023-06-04T13:50:08;10.23;;;7.10;;
6388;SDS011;3227;42.654;23.360;2023-06-04T13:52:35;12.80;;;6.57;;
6388;SDS011;3227;42.654;23.360;2023-06-04T13:55:02;12.85;;;6.82;;
6388;SDS011;3227;42.654;23.360;2023-06-04T13:57:29;12.75;;;6.88;;
6388;SDS011;3227;42.654;23.360;2023-06-04T13:59:57;10.70;;;6.72;;
6388;SDS011;3227;42.654;23.360;2023-06-04T14:02:25;11.30;;;7.05;;
6388;SDS011;3227;42.654;23.360;2023-06-04T14:04:52;13.30;;;7.22;;
6388;SDS011;3227;42.654;23.360;2023-06-04T14:07:20;11.57;;;6.95;;
6388;SDS011;3227;42.654;23.360;2023-06-04T14:09:46;11.77;;;7.15;;
6388;SDS011;3227;42.654;23.360;2023-06-04T14:12:19;10.77;;;7.70;;
6388;SDS011;3227;42.654;23.360;2023-06-04T14:14:46;10.70;;;7.30;;
6388;SDS011;3227;42.654;23.360;2023-06-04T14:17:14;13.18;;;7.25;;
6388;SDS011;3227;42.654;23.360;2023-06-04T14:19:41;12.25;;;6.97;;
6388;SDS011;3227;42.654;23.360;2023-06-04T14:22:09;10.75;;;7.03;;
6388;SDS011;3227;42.654;23.360;2023-06-04T14:24:36;13.77;;;7.22;;
6388;SDS011;3227;42.654;23.360;2023-06-04T14:27:03;12.20;;;7.20;;
6388;SDS011;3227;42.654;23.360;2023-06-04T14:29:31;11.07;;;7.43;;
6388;SDS011;3227;42.654;23.360;2023-06-04T14:31:58;11.35;;;7.32;;
6388;SDS011;3227;42.654;23.360;2023-06-04T14:34:26;10.93;;;6.93;;
6388;SDS011;3227;42.654;23.360;2023-06-04T14:36:53;10.82;;;6.95;;
6388;SDS011;3227;42.654;23.360;2023-06-04T14:39:20;13.13;;;7.28;;
6388;SDS011;3227;42.654;23.360;2023-06-04T14:41:46;9.82;;;6.97;;
6388;SDS011;3227;42.654;23.360;2023-06-04T14:44:14;11.80;;;7.72;;
6388;SDS011;3227;42.654;23.360;2023-06-04T14:46:41;11.40;;;7.13;;
6388;SDS011;3227;42.654;23.360;2023-06-04T14:49:07;10.88;;;7.28;;
6388;SDS011;3227;42.654;23.360;2023-06-04T14:51:36;11.60;;;7.40;;
6388;SDS011;3227;42.654;23.360;2023-06-04T14:54:03;11.98;;;7.38;;
6388;SDS011;3227;42.654;23.360;2023-06-04T14:56:30;10.93;;;6.90;;
6388;SDS011;3227;42.654;23.360;2023-06-04T14:58:58;9.75;;;6.85;;
6388;SDS011;3227;42.654;23.360;2023-06-04T15:01:25;13.38;;;7.55;;
6388;SDS011;3227;42.654;23.360;2023-06-04T15:03:52;10.32;;;7.32;;